createdAt,value
2023-04-22T00:02:30.712Z,10.10
2023-04-22T00:04:58.673Z,10.10
2023-04-22T00:07:26.590Z,10.10
2023-04-22T00:09:54.483Z,10.00
2023-04-22T00:12:23.695Z,10.00
2023-04-22T00:14:51.630Z,10.00
2023-04-22T00:17:19.393Z,10.00
2023-04-22T00:19:47.680Z,10.00
2023-04-22T00:22:15.744Z,10.00
2023-04-22T00:24:43.913Z,10.00
2023-04-22T00:27:11.781Z,9.90
2023-04-22T00:29:41.244Z,10.00
2023-04-22T00:32:09.508Z,10.00
2023-04-22T00:34:37.276Z,10.00
2023-04-22T00:37:05.233Z,10.00
2023-04-22T00:39:33.040Z,9.90
2023-04-22T00:42:01.918Z,9.80
2023-04-22T00:44:30.880Z,9.80
2023-04-22T00:47:00.608Z,9.80
2023-04-22T00:49:28.848Z,9.80
2023-04-22T00:51:56.671Z,9.80
2023-04-22T00:54:24.556Z,9.80
2023-04-22T00:56:52.730Z,9.80
2023-04-22T00:59:21.372Z,9.80
2023-04-22T01:01:49.198Z,9.80
2023-04-22T01:04:18.935Z,9.80
2023-04-22T01:06:48.755Z,9.80
2023-04-22T01:09:16.658Z,9.80
2023-04-22T01:11:44.439Z,9.70
2023-04-22T01:14:12.258Z,9.70
2023-04-22T01:16:43.455Z,9.70
2023-04-22T01:19:12.870Z,9.80
2023-04-22T01:21:45.026Z,9.80
2023-04-22T01:24:14.238Z,9.70
2023-04-22T01:26:42.202Z,9.80
2023-04-22T01:29:12.902Z,9.90
2023-04-22T01:31:40.946Z,10.00
2023-04-22T01:34:09.077Z,9.90
2023-04-22T01:36:36.807Z,10.10
2023-04-22T01:39:04.796Z,10.10
2023-04-22T01:41:34.407Z,10.00
2023-04-22T01:44:04.728Z,10.00
2023-04-22T01:46:33.860Z,10.00
2023-04-22T01:49:01.824Z,10.10
2023-04-22T01:51:29.677Z,10.10
2023-04-22T01:53:57.644Z,10.10
2023-04-22T01:56:25.639Z,10.10
2023-04-22T01:58:56.780Z,10.10
2023-04-22T02:01:24.624Z,10.10
2023-04-22T02:03:52.726Z,10.20
2023-04-22T02:06:23.594Z,10.20
2023-04-22T02:08:51.575Z,10.20
2023-04-22T02:11:19.315Z,10.20
2023-04-22T02:13:47.150Z,10.30
2023-04-22T02:16:16.626Z,10.20
2023-04-22T02:18:44.484Z,10.20
2023-04-22T02:21:12.259Z,10.10
2023-04-22T02:23:41.420Z,10.00
2023-04-22T02:26:09.622Z,10.10
2023-04-22T02:28:37.417Z,10.10
2023-04-22T02:31:05.247Z,10.00
2023-04-22T02:33:34.416Z,10.00
2023-04-22T02:36:02.186Z,9.90
2023-04-22T02:38:29.940Z,9.80
2023-04-22T02:40:57.806Z,9.80
2023-04-22T02:43:28.616Z,9.80
2023-04-22T02:45:59.670Z,9.80
2023-04-22T02:48:27.543Z,9.80
2023-04-22T02:50:56.697Z,9.90
2023-04-22T02:53:24.448Z,10.00
2023-04-22T02:55:52.577Z,10.00
2023-04-22T02:58:20.295Z,10.00
2023-04-22T03:00:48.346Z,9.90
2023-04-22T03:03:16.288Z,9.90
2023-04-22T03:05:44.180Z,9.90
2023-04-22T03:08:13.335Z,9.90
2023-04-22T03:10:41.368Z,9.90
2023-04-22T03:13:09.116Z,9.90
2023-04-22T03:15:36.926Z,9.80
2023-04-22T03:18:04.791Z,9.80
2023-04-22T03:20:32.566Z,9.80
2023-04-22T03:23:01.353Z,9.80
2023-04-22T03:25:30.512Z,9.80
2023-04-22T03:27:58.273Z,9.80
2023-04-22T03:30:26.250Z,9.80
2023-04-22T03:32:54.149Z,9.70
2023-04-22T03:35:22.028Z,9.60
2023-04-22T03:37:49.851Z,9.60
2023-04-22T03:40:17.797Z,9.50
2023-04-22T03:42:47.002Z,9.60
2023-04-22T03:45:14.782Z,9.60
2023-04-22T03:47:42.559Z,9.50
2023-04-22T03:50:11.373Z,9.50
2023-04-22T03:52:39.108Z,9.50
2023-04-22T03:55:07.533Z,9.50
2023-04-22T03:57:37.065Z,9.40
2023-04-22T04:00:07.522Z,9.30
2023-04-22T04:02:35.447Z,9.30
2023-04-22T04:05:03.988Z,9.30
2023-04-22T04:07:32.021Z,9.40
2023-04-22T04:10:00.004Z,9.40
2023-04-22T04:12:27.898Z,9.50
2023-04-22T04:14:55.734Z,9.50
2023-04-22T04:17:25.938Z,9.60
2023-04-22T04:19:54.964Z,9.50
2023-04-22T04:22:22.823Z,9.50
2023-04-22T04:24:50.639Z,9.50
2023-04-22T04:27:18.405Z,9.50
2023-04-22T04:29:46.158Z,9.50
2023-04-22T04:32:14.274Z,9.50
2023-04-22T04:34:43.712Z,9.60
2023-04-22T04:37:11.686Z,9.60
2023-04-22T04:39:39.755Z,9.60
2023-04-22T04:42:08.324Z,9.60
2023-04-22T04:44:36.430Z,9.70
2023-04-22T04:47:05.247Z,9.60
2023-04-22T04:49:33.164Z,9.60
2023-04-22T04:52:02.763Z,9.70
2023-04-22T04:54:30.602Z,9.70
2023-04-22T04:57:00.799Z,9.70
2023-04-22T04:59:28.813Z,9.80
2023-04-22T05:01:56.738Z,9.80
2023-04-22T05:04:25.114Z,9.80
2023-04-22T05:06:53.145Z,9.90
2023-04-22T05:09:22.457Z,9.90
2023-04-22T05:11:50.796Z,10.00
2023-04-22T05:14:18.643Z,10.00
2023-04-22T05:16:46.606Z,10.10
2023-04-22T05:19:14.712Z,10.10
2023-04-22T05:21:42.472Z,10.20
2023-04-22T05:24:10.563Z,10.30
2023-04-22T05:26:40.055Z,10.30
2023-04-22T05:29:21.302Z,10.40
2023-04-22T05:31:49.268Z,10.40
2023-04-22T05:34:17.098Z,10.50
2023-04-22T05:36:44.949Z,10.60
2023-04-22T05:39:15.639Z,10.60
2023-04-22T05:41:46.992Z,10.70
2023-04-22T05:44:15.192Z,10.80
2023-04-22T05:46:43.149Z,10.90
2023-04-22T05:49:11.102Z,11.00
2023-04-22T05:51:39.023Z,11.10
2023-04-22T05:54:07.288Z,11.10
2023-04-22T05:56:36.306Z,11.20
2023-04-22T05:59:05.621Z,11.20
2023-04-22T06:01:33.516Z,11.40
2023-04-22T06:04:01.563Z,11.40
2023-04-22T06:06:33.369Z,11.50
2023-04-22T06:09:01.301Z,11.50
2023-04-22T06:11:29.409Z,11.60
2023-04-22T06:13:58.967Z,11.60
2023-04-22T06:16:28.725Z,11.70
2023-04-22T06:18:56.641Z,11.70
2023-04-22T06:21:26.811Z,11.80
2023-04-22T06:23:54.724Z,11.90
2023-04-22T06:26:22.640Z,11.90
2023-04-22T06:28:50.763Z,12.00
2023-04-22T06:31:19.784Z,12.10
2023-04-22T06:33:50.310Z,12.10
2023-04-22T06:36:18.048Z,12.20
2023-04-22T06:38:49.423Z,12.30
2023-04-22T06:41:17.949Z,12.40
2023-04-22T06:43:46.274Z,12.50
2023-04-22T06:46:14.218Z,12.60
2023-04-22T06:48:42.161Z,12.70
2023-04-22T06:51:11.450Z,12.80
2023-04-22T06:53:39.534Z,12.90
2023-04-22T06:56:07.969Z,13.00
2023-04-22T06:58:35.915Z,13.10
2023-04-22T07:01:03.878Z,13.20
2023-04-22T07:03:32.033Z,13.30
2023-04-22T07:06:00.150Z,13.40
2023-04-22T07:08:29.688Z,13.60
2023-04-22T07:10:57.864Z,13.60
2023-04-22T07:13:27.182Z,13.80
2023-04-22T07:15:55.196Z,13.90
2023-04-22T07:18:23.134Z,14.00
2023-04-22T07:20:51.425Z,14.10
2023-04-22T07:23:19.554Z,14.10
2023-04-22T07:25:49.093Z,14.20
2023-04-22T07:28:17.098Z,14.40
2023-04-22T07:31:46.492Z,14.50
2023-04-22T07:34:14.962Z,14.60
2023-04-22T07:36:42.935Z,14.80
2023-04-22T07:39:10.954Z,14.80
2023-04-22T07:41:40.329Z,15.00
2023-04-22T07:44:08.323Z,15.10
2023-04-22T07:46:36.245Z,15.20
2023-04-22T07:49:04.312Z,15.30
2023-04-22T07:51:32.689Z,15.50
2023-04-22T07:54:00.540Z,15.60
2023-04-22T07:56:28.587Z,15.80
2023-04-22T07:58:57.930Z,15.90
2023-04-22T08:01:25.980Z,16.10
2023-04-22T08:03:57.840Z,16.10
2023-04-22T08:06:26.257Z,16.30
2023-04-22T08:08:54.904Z,16.40
2023-04-22T08:11:23.109Z,16.50
2023-04-22T08:13:51.037Z,16.60
2023-04-22T08:16:21.505Z,16.80
2023-04-22T08:18:49.461Z,16.80
2023-04-22T08:21:20.459Z,16.90
2023-04-22T08:23:48.425Z,17.10
2023-04-22T08:26:16.963Z,17.20
2023-04-22T08:28:46.041Z,17.30
2023-04-22T08:31:14.160Z,17.40
2023-04-22T08:33:43.684Z,17.50
2023-04-22T08:36:11.540Z,17.60
2023-04-22T08:38:39.725Z,17.70
2023-04-22T08:41:07.947Z,17.80
2023-04-22T08:43:36.374Z,17.90
2023-04-22T08:46:04.545Z,17.90
2023-04-22T08:48:33.860Z,17.90
2023-04-22T08:51:07.053Z,18.10
2023-04-22T08:53:43.433Z,18.30
2023-04-22T08:56:15.493Z,18.50
2023-04-22T08:58:46.810Z,18.50
2023-04-22T09:01:15.366Z,18.40
2023-04-22T09:03:43.517Z,18.40
2023-04-22T09:06:13.271Z,18.60
2023-04-22T09:08:41.146Z,18.70
2023-04-22T09:11:09.710Z,18.70
2023-04-22T09:13:37.603Z,18.90
2023-04-22T09:16:05.652Z,19.00
2023-04-22T09:18:41.021Z,19.00
2023-04-22T09:21:09.889Z,19.10
2023-04-22T09:23:47.882Z,19.00
2023-04-22T09:26:18.189Z,19.30
2023-04-22T09:28:53.432Z,19.50
2023-04-22T09:31:22.613Z,19.60
2023-04-22T09:33:52.484Z,19.60
2023-04-22T09:36:23.939Z,19.50
2023-04-22T09:38:57.571Z,19.50
2023-04-22T09:41:29.423Z,19.70
2023-04-22T09:43:58.621Z,19.70
2023-04-22T09:46:30.759Z,19.70
2023-04-22T09:49:00.052Z,19.80
2023-04-22T09:51:29.033Z,20.10
2023-04-22T09:54:04.281Z,20.10
2023-04-22T09:56:43.153Z,20.10
2023-04-22T09:59:11.162Z,20.30
2023-04-22T10:01:41.025Z,20.40
2023-04-22T10:04:09.880Z,20.50
2023-04-22T10:06:37.798Z,20.50
2023-04-22T10:09:09.430Z,20.70
2023-04-22T10:11:37.611Z,20.80
2023-04-22T10:14:05.465Z,20.60
2023-04-22T10:16:35.737Z,20.70
2023-04-22T10:19:06.896Z,20.90
2023-04-22T10:21:35.519Z,20.90
2023-04-22T10:24:04.852Z,21.10
2023-04-22T10:26:49.624Z,21.10
2023-04-22T10:29:19.076Z,21.20
2023-04-22T10:31:51.976Z,21.50
2023-04-22T10:34:19.900Z,21.70
2023-04-22T10:36:55.013Z,21.80
2023-04-22T10:39:23.275Z,21.90
2023-04-22T10:42:06.244Z,21.90
2023-04-22T10:44:51.632Z,21.90
2023-04-22T10:47:27.492Z,22.00
2023-04-22T10:50:11.519Z,22.00
2023-04-22T10:52:41.601Z,21.90
2023-04-22T10:55:13.527Z,21.90
2023-04-22T10:57:44.105Z,22.00
2023-04-22T11:00:24.114Z,22.10
2023-04-22T11:03:10.456Z,22.10
2023-04-22T11:05:40.943Z,22.40
2023-04-22T11:08:12.765Z,22.60
2023-04-22T11:10:44.944Z,22.90
2023-04-22T11:13:15.991Z,22.80
2023-04-22T11:15:45.414Z,23.10
2023-04-22T11:18:20.784Z,22.80
2023-04-22T11:20:52.437Z,23.00
2023-04-22T11:23:25.665Z,23.00
2023-04-22T11:25:59.063Z,23.30
2023-04-22T11:28:28.761Z,23.60
2023-04-22T11:31:06.085Z,23.70
2023-04-22T11:33:35.100Z,24.00
2023-04-22T11:36:03.256Z,24.00
2023-04-22T11:38:31.562Z,24.40
2023-04-22T11:40:59.537Z,24.70
2023-04-22T11:43:32.331Z,24.60
2023-04-22T11:46:00.243Z,24.80
2023-04-22T11:48:29.207Z,24.50
2023-04-22T11:51:12.999Z,24.80
2023-04-22T11:53:51.999Z,24.90
2023-04-22T11:56:19.772Z,25.10
2023-04-22T11:58:48.944Z,24.80
2023-04-22T12:01:18.092Z,24.90
2023-04-22T12:03:46.134Z,25.10
2023-04-22T12:06:14.040Z,25.00
2023-04-22T12:08:43.041Z,24.90
2023-04-22T12:11:11.922Z,24.90
2023-04-22T12:13:43.101Z,24.80
2023-04-22T12:16:15.057Z,24.60
2023-04-22T12:18:49.580Z,24.60
2023-04-22T12:21:21.338Z,24.60
2023-04-22T12:23:51.562Z,25.10
2023-04-22T12:26:23.734Z,25.60
2023-04-22T12:28:53.506Z,25.70
2023-04-22T12:31:22.722Z,25.70
2023-04-22T12:33:51.042Z,25.90
2023-04-22T12:36:20.815Z,25.90
2023-04-22T12:38:48.804Z,26.30
2023-04-22T12:41:17.191Z,26.20
2023-04-22T12:43:45.059Z,26.20
2023-04-22T12:46:12.936Z,26.20
2023-04-22T12:48:42.739Z,26.50
2023-04-22T12:51:10.627Z,26.60
2023-04-22T12:53:38.370Z,26.90
2023-04-22T12:56:06.573Z,26.70
2023-04-22T12:58:34.285Z,27.00
2023-04-22T13:01:02.154Z,27.10
2023-04-22T13:03:30.016Z,27.20
2023-04-22T13:05:59.290Z,27.70
2023-04-22T13:08:27.803Z,27.40
2023-04-22T13:10:55.554Z,27.10
2023-04-22T13:13:23.266Z,26.90
2023-04-22T13:15:54.594Z,27.50
2023-04-22T13:18:23.802Z,27.60
2023-04-22T13:20:52.084Z,27.70
2023-04-22T13:23:26.095Z,28.00
2023-04-22T13:25:53.929Z,28.30
2023-04-22T13:28:21.824Z,28.20
2023-04-22T13:30:49.667Z,27.90
2023-04-22T13:33:17.466Z,28.10
2023-04-22T13:35:45.251Z,28.10
2023-04-22T13:38:16.018Z,28.30
2023-04-22T13:40:45.118Z,28.50
2023-04-22T13:43:12.914Z,28.50
2023-04-22T13:45:42.286Z,29.20
2023-04-22T13:48:10.291Z,29.60
2023-04-22T13:50:38.130Z,29.10
2023-04-22T13:53:09.739Z,29.60
2023-04-22T13:55:37.606Z,29.50
2023-04-22T13:58:07.627Z,29.40
2023-04-22T14:00:35.941Z,29.40
2023-04-22T14:03:06.746Z,29.70
2023-04-22T14:05:34.585Z,29.70
2023-04-22T14:08:02.441Z,29.20
2023-04-22T14:10:30.245Z,28.70
2023-04-22T14:12:57.978Z,29.10
2023-04-22T14:15:27.102Z,28.70
2023-04-22T14:17:54.923Z,28.70
2023-04-22T14:20:25.013Z,29.10
2023-04-22T14:22:55.042Z,29.30
2023-04-22T14:25:22.923Z,29.20
2023-04-22T14:27:50.690Z,29.60
2023-04-22T14:30:19.587Z,29.30
2023-04-22T14:32:48.728Z,28.80
2023-04-22T14:35:16.744Z,29.00
2023-04-22T14:37:45.029Z,28.40
2023-04-22T14:40:13.089Z,28.90
2023-04-22T14:42:41.269Z,29.10
2023-04-22T14:45:09.720Z,29.30
2023-04-22T14:47:37.517Z,28.80
2023-04-22T14:50:07.705Z,29.10
2023-04-22T14:52:35.465Z,30.40
2023-04-22T14:55:15.516Z,30.50
2023-04-22T14:57:47.877Z,30.70
2023-04-22T15:00:16.111Z,30.30
2023-04-22T15:02:44.009Z,29.50
2023-04-22T15:05:15.411Z,28.50
2023-04-22T15:07:45.625Z,27.60
2023-04-22T15:10:14.347Z,27.60
2023-04-22T15:12:42.104Z,27.60
2023-04-22T15:15:13.192Z,27.80
2023-04-22T15:17:41.203Z,27.60
2023-04-22T15:20:09.802Z,27.90
2023-04-22T15:22:41.022Z,27.50
2023-04-22T15:25:09.828Z,27.40
2023-04-22T15:27:38.505Z,27.30
2023-04-22T15:30:07.836Z,27.20
2023-04-22T15:32:36.153Z,27.00
2023-04-22T15:35:03.882Z,26.40
2023-04-22T15:37:31.815Z,26.10
2023-04-22T15:40:01.093Z,25.70
2023-04-22T15:42:28.835Z,25.60
2023-04-22T15:44:56.599Z,25.80
2023-04-22T15:47:25.616Z,25.70
2023-04-22T15:49:53.451Z,25.90
2023-04-22T15:52:21.288Z,26.60
2023-04-22T15:54:49.815Z,27.40
2023-04-22T15:57:18.835Z,27.20
2023-04-22T15:59:51.444Z,27.10
2023-04-22T16:02:24.448Z,27.10
2023-04-22T16:04:52.236Z,26.40
2023-04-22T16:07:19.964Z,25.60
2023-04-22T16:09:47.780Z,25.00
2023-04-22T16:12:16.310Z,24.30
2023-04-22T16:14:45.922Z,23.80
2023-04-22T16:17:13.898Z,23.50
2023-04-22T16:19:41.988Z,23.40
2023-04-22T16:22:10.250Z,23.30
2023-04-22T16:24:38.034Z,23.20
2023-04-22T16:27:05.798Z,23.10
2023-04-22T16:29:33.520Z,23.00
2023-04-22T16:32:02.798Z,23.00
2023-04-22T16:34:30.690Z,23.20
2023-04-22T16:36:58.399Z,23.70
2023-04-22T16:39:26.304Z,24.30
2023-04-22T16:41:54.834Z,25.00
2023-04-22T16:44:22.589Z,25.20
2023-04-22T16:46:50.359Z,25.40
2023-04-22T16:49:19.662Z,25.50
2023-04-22T16:51:47.574Z,25.50
2023-04-22T16:54:15.298Z,25.30
2023-04-22T16:56:43.068Z,24.70
2023-04-22T16:59:11.009Z,24.20
2023-04-22T17:01:39.777Z,23.40
2023-04-22T17:04:07.597Z,23.10
2023-04-22T17:06:39.629Z,23.00
2023-04-22T17:09:09.235Z,22.90
2023-04-22T17:11:37.186Z,22.80
2023-04-22T17:14:04.996Z,22.60
2023-04-22T17:16:33.216Z,22.60
2023-04-22T17:19:00.908Z,22.60
2023-04-22T17:21:28.974Z,22.60
2023-04-22T17:24:08.294Z,22.60
2023-04-22T17:26:37.016Z,22.30
2023-04-22T17:29:04.764Z,22.10
2023-04-22T17:31:33.518Z,22.30
2023-04-22T17:34:01.613Z,22.20
2023-04-22T17:36:29.378Z,22.00
2023-04-22T17:38:58.443Z,21.80
2023-04-22T17:41:26.228Z,21.60
2023-04-22T17:43:54.825Z,21.40
2023-04-22T17:46:22.593Z,21.10
2023-04-22T17:48:50.350Z,20.80
2023-04-22T17:51:18.060Z,20.60
2023-04-22T17:53:45.712Z,20.40
2023-04-22T17:56:15.170Z,20.20
2023-04-22T17:58:43.001Z,20.00
2023-04-22T18:01:10.742Z,19.90
2023-04-22T18:03:38.690Z,19.70
2023-04-22T18:06:06.908Z,19.50
2023-04-22T18:08:34.731Z,19.30
2023-04-22T18:11:03.198Z,19.20
2023-04-22T18:13:33.016Z,19.20
2023-04-22T18:16:01.032Z,19.00
2023-04-22T18:18:28.839Z,18.90
2023-04-22T18:20:56.685Z,18.80
2023-04-22T18:23:24.474Z,18.60
2023-04-22T18:25:53.863Z,18.50
2023-04-22T18:28:21.602Z,18.50
2023-04-22T18:30:50.770Z,18.40
2023-04-22T18:33:18.554Z,18.30
2023-04-22T18:35:46.296Z,18.20
2023-04-22T18:38:13.982Z,18.10
2023-04-22T18:40:42.314Z,18.00
2023-04-22T18:43:10.091Z,18.00
2023-04-22T18:45:37.863Z,17.90
2023-04-22T18:48:07.073Z,17.90
2023-04-22T18:50:34.934Z,17.80
2023-04-22T18:53:02.688Z,17.80
2023-04-22T18:55:30.537Z,17.70
2023-04-22T18:57:58.241Z,17.70
2023-04-22T19:00:26.636Z,17.60
2023-04-22T19:02:54.604Z,17.60
2023-04-22T19:05:23.947Z,17.50
2023-04-22T19:07:51.873Z,17.40
2023-04-22T19:10:19.888Z,17.30
2023-04-22T19:12:47.790Z,17.20
2023-04-22T19:15:15.702Z,17.20
2023-04-22T19:17:43.442Z,17.10
2023-04-22T19:20:12.093Z,17.10
2023-04-22T19:22:41.290Z,17.00
2023-04-22T19:25:09.836Z,16.90
2023-04-22T19:27:37.832Z,16.90
2023-04-22T19:30:06.992Z,16.90
2023-04-22T19:32:34.834Z,16.90
2023-04-22T19:35:04.133Z,16.90
2023-04-22T19:37:32.113Z,16.90
2023-04-22T19:40:01.200Z,16.80
2023-04-22T19:42:29.212Z,16.80
2023-04-22T19:44:58.933Z,16.90
2023-04-22T19:47:27.207Z,16.80
2023-04-22T19:49:56.386Z,16.80
2023-04-22T19:52:26.157Z,16.80
2023-04-22T19:54:56.114Z,16.80
2023-04-22T19:57:25.791Z,16.80
2023-04-22T19:59:55.021Z,16.90
2023-04-22T20:02:23.726Z,16.80
2023-04-22T20:04:55.248Z,16.80
2023-04-22T20:07:23.533Z,16.70
2023-04-22T20:09:52.902Z,16.70
2023-04-22T20:12:21.789Z,16.70
2023-04-22T20:14:51.131Z,16.70
2023-04-22T20:17:19.239Z,16.70
2023-04-22T20:19:47.298Z,16.70
2023-04-22T20:22:17.711Z,16.70
2023-04-22T20:24:46.547Z,16.70
2023-04-22T20:27:17.078Z,16.80
2023-04-22T20:29:46.252Z,16.70
2023-04-22T20:32:16.787Z,16.70
2023-04-22T20:34:44.931Z,16.70
2023-04-22T20:37:13.939Z,16.70
2023-04-22T20:39:43.348Z,16.70
2023-04-22T20:42:11.742Z,16.70
2023-04-22T20:44:39.765Z,16.60
2023-04-22T20:47:08.367Z,16.60
2023-04-22T20:49:41.534Z,16.50
2023-04-22T20:52:09.748Z,16.50
2023-04-22T20:54:37.762Z,16.50
2023-04-22T20:57:06.410Z,16.50
2023-04-22T20:59:34.341Z,16.50
2023-04-22T21:02:04.078Z,16.40
2023-04-22T21:04:33.316Z,16.30
2023-04-22T21:07:04.366Z,16.30
2023-04-22T21:09:33.683Z,16.30
2023-04-22T21:12:02.312Z,16.20
2023-04-22T21:14:30.780Z,16.20
2023-04-22T21:17:04.398Z,16.10
2023-04-22T21:19:34.040Z,16.00
2023-04-22T21:22:05.896Z,16.00
2023-04-22T21:24:34.917Z,16.00
2023-04-22T21:27:03.579Z,16.00
2023-04-22T21:29:32.573Z,16.10
2023-04-22T21:32:08.766Z,16.00
2023-04-22T21:34:37.483Z,16.00
2023-04-22T21:37:07.829Z,16.00
2023-04-22T21:39:36.263Z,16.00
2023-04-22T21:42:07.728Z,16.00
2023-04-22T21:44:37.139Z,15.90
2023-04-22T21:47:07.758Z,15.90
2023-04-22T21:49:35.833Z,15.90
2023-04-22T21:52:03.734Z,15.90
2023-04-22T21:54:34.236Z,15.80
2023-04-22T21:57:02.407Z,15.80
2023-04-22T21:59:31.656Z,15.80
2023-04-22T22:01:59.389Z,15.80
2023-04-22T22:04:27.252Z,15.80
2023-04-22T22:06:55.033Z,15.80
2023-04-22T22:09:22.884Z,15.70
2023-04-22T22:11:51.934Z,15.70
2023-04-22T22:14:19.613Z,15.70
2023-04-22T22:16:47.383Z,15.70
2023-04-22T22:19:15.132Z,15.70
2023-04-22T22:21:42.857Z,15.60
2023-04-22T22:24:17.727Z,15.60
2023-04-22T22:26:45.574Z,15.60
2023-04-22T22:29:15.634Z,15.70
2023-04-22T22:31:45.947Z,15.70
2023-04-22T22:34:13.692Z,15.70
2023-04-22T22:36:41.701Z,15.60
2023-04-22T22:39:11.887Z,15.50
2023-04-22T22:41:41.653Z,15.50
2023-04-22T22:44:11.054Z,15.40
2023-04-22T22:46:40.927Z,15.40
2023-04-22T22:49:08.710Z,15.40
2023-04-22T22:51:37.444Z,15.20
2023-04-22T22:54:05.802Z,15.20
2023-04-22T22:56:33.614Z,14.90
2023-04-22T22:59:01.419Z,14.80
2023-04-22T23:01:29.265Z,14.70
2023-04-22T23:03:58.491Z,14.60
2023-04-22T23:06:27.147Z,14.50
2023-04-22T23:08:54.896Z,14.40
2023-04-22T23:11:22.606Z,14.30
2023-04-22T23:13:50.428Z,14.40
2023-04-22T23:16:18.469Z,14.40
2023-04-22T23:18:46.949Z,14.50
2023-04-22T23:21:16.637Z,14.50
2023-04-22T23:23:47.913Z,14.50
2023-04-22T23:26:16.397Z,14.40
2023-04-22T23:28:44.639Z,14.50
2023-04-22T23:31:14.939Z,14.40
2023-04-22T23:33:43.289Z,14.40
2023-04-22T23:36:14.159Z,14.40
2023-04-22T23:38:43.282Z,14.40
2023-04-22T23:41:11.038Z,14.40
2023-04-22T23:43:38.807Z,14.40
2023-04-22T23:46:06.687Z,14.40
2023-04-22T23:48:34.778Z,14.40
2023-04-22T23:51:02.643Z,14.40
2023-04-22T23:53:30.355Z,14.40
2023-04-22T23:56:00.462Z,14.40
2023-04-22T23:58:28.619Z,14.40
